Time;durP1;ratioP1;P1;durP2;ratioP2;P2;SDS_P1;SDS_P2;PMS_P1;PMS_P2;Temp;Humidity;BMP_temperature;BMP_pressure;BME280_temperature;BME280_humidity;BME280_pressure;Samples;Min_cycle;Max_cycle;Signal;HPM_P1;HPM_P2
2021/08/08 00:00:15;;;;;;;11.98;9.07;;;21.50;71.40;;;;;;5107240;28;20180;-78
2021/08/08 00:02:41;;;;;;;11.02;8.98;;;21.50;71.40;;;;;;5056279;28;20612;-79
2021/08/08 00:05:11;;;;;;;11.57;9.25;;;21.50;71.50;;;;;;5038045;28;20202;-82
2021/08/08 00:07:37;;;;;;;12.27;9.30;;;21.50;71.40;;;;;;5090521;28;20681;-81
2021/08/08 00:10:05;;;;;;;11.10;8.70;;;21.50;71.30;;;;;;5034483;28;20238;-79
2021/08/08 00:12:36;;;;;;;12.13;9.02;;;21.50;71.40;;;;;;5036647;28;20225;-80
2021/08/08 00:15:02;;;;;;;11.38;8.80;;;21.50;71.30;;;;;;5104106;28;20642;-83
2021/08/08 00:17:28;;;;;;;12.55;9.23;;;21.50;71.20;;;;;;5036194;28;20166;-79
2021/08/08 00:19:54;;;;;;;12.43;9.20;;;21.50;71.30;;;;;;5034780;28;20151;-80
2021/08/08 00:22:24;;;;;;;11.75;9.00;;;21.50;71.30;;;;;;5035122;28;20147;-81
2021/08/08 00:24:54;;;;;;;12.80;9.07;;;21.50;71.20;;;;;;5001606;28;20211;-79
2021/08/08 00:27:20;;;;;;;11.95;9.32;;;21.50;71.50;;;;;;5104144;28;20672;-82
2021/08/08 00:29:50;;;;;;;11.02;9.10;;;21.50;71.40;;;;;;5035019;28;20160;-79
2021/08/08 00:32:19;;;;;;;10.88;9.13;;;21.50;71.20;;;;;;5104124;28;20182;-79
2021/08/08 00:34:45;;;;;;;11.45;8.98;;;21.50;71.30;;;;;;5103899;28;20649;-78
2021/08/08 00:37:12;;;;;;;11.93;9.27;;;21.50;71.20;;;;;;5035803;28;20271;-82
2021/08/08 00:39:43;;;;;;;10.38;8.35;;;21.50;71.30;;;;;;5017769;28;20182;-82
2021/08/08 00:42:10;;;;;;;11.30;9.05;;;21.50;71.40;;;;;;5086563;28;20186;-84
2021/08/08 00:44:40;;;;;;;10.10;8.85;;;21.50;71.40;;;;;;5086672;28;20214;-81
2021/08/08 00:47:10;;;;;;;10.63;8.93;;;21.50;71.40;;;;;;5086709;28;20234;-81
2021/08/08 00:49:45;;;;;;;10.57;8.80;;;21.50;71.20;;;;;;5103089;28;20194;-82
2021/08/08 00:52:12;;;;;;;11.32;8.82;;;21.50;71.20;;;;;;5069449;28;20183;-81
2021/08/08 00:54:42;;;;;;;11.05;8.65;;;21.50;71.20;;;;;;5069154;28;20179;-81
2021/08/08 00:57:14;;;;;;;11.05;9.40;;;21.50;71.40;;;;;;5086705;28;20664;-80
2021/08/08 00:59:44;;;;;;;10.38;9.05;;;21.50;71.20;;;;;;5103726;28;20219;-81
2021/08/08 01:02:11;;;;;;;11.80;9.52;;;21.50;71.20;;;;;;5102816;28;20182;-78
2021/08/08 01:04:40;;;;;;;11.35;9.27;;;21.50;71.20;;;;;;5103236;28;20228;-81
2021/08/08 01:07:10;;;;;;;12.43;9.05;;;21.50;71.20;;;;;;5103192;28;20653;-79
2021/08/08 01:09:39;;;;;;;11.15;8.90;;;21.50;71.20;;;;;;5101043;28;20313;-81
2021/08/08 01:12:09;;;;;;;11.27;8.85;;;21.50;71.10;;;;;;5035470;28;20151;-83
2021/08/08 01:14:42;;;;;;;12.80;8.93;;;21.50;71.30;;;;;;5085722;28;20251;-80
2021/08/08 01:17:09;;;;;;;11.00;8.80;;;21.50;71.20;;;;;;5102827;28;20243;-80
2021/08/08 01:19:54;;;;;;;10.75;8.82;;;21.50;71.20;;;;;;5102658;28;20232;-83
2021/08/08 01:22:28;;;;;;;10.18;8.73;;;21.50;71.30;;;;;;5035488;28;20161;-81
2021/08/08 01:24:56;;;;;;;10.25;8.40;;;21.50;71.20;;;;;;5100271;28;20256;-78
2021/08/08 01:27:22;;;;;;;10.60;8.57;;;21.50;71.30;;;;;;5033729;28;20154;-79
2021/08/08 01:29:48;;;;;;;11.02;8.73;;;21.40;71.00;;;;;;5034167;28;20159;-82
2021/08/08 01:32:21;;;;;;;12.02;9.13;;;21.50;71.20;;;;;;5035098;28;20163;-80
2021/08/08 01:34:54;;;;;;;11.75;9.27;;;21.50;71.20;;;;;;5085171;28;20206;-79
2021/08/08 01:37:20;;;;;;;10.85;8.80;;;21.50;71.20;;;;;;5101970;28;20182;-79
2021/08/08 01:39:50;;;;;;;9.82;8.57;;;21.50;71.10;;;;;;5034890;28;20589;-78
2021/08/08 01:42:16;;;;;;;11.77;9.00;;;21.50;71.20;;;;;;5016980;28;20159;-82
2021/08/08 01:44:47;;;;;;;11.25;9.07;;;21.50;71.20;;;;;;5033714;28;20216;-80
2021/08/08 01:47:18;;;;;;;10.80;8.85;;;21.50;71.20;;;;;;5033428;28;20155;-80
2021/08/08 01:49:49;;;;;;;11.00;9.13;;;21.50;71.20;;;;;;5084706;28;20186;-82
2021/08/08 01:52:15;;;;;;;10.63;8.75;;;21.50;71.20;;;;;;5084921;28;20185;-84
2021/08/08 01:54:41;;;;;;;10.32;8.82;;;21.50;71.10;;;;;;5034425;28;20526;-80
2021/08/08 01:57:12;;;;;;;9.85;8.10;;;21.50;71.00;;;;;;5034372;28;20155;-79
2021/08/08 01:59:42;;;;;;;10.77;8.80;;;21.50;71.00;;;;;;5085668;28;20273;-80
2021/08/08 02:02:10;;;;;;;11.68;8.48;;;21.50;71.00;;;;;;5101770;28;20330;-79
2021/08/08 02:04:40;;;;;;;11.32;8.68;;;21.50;71.10;;;;;;5033254;28;20291;-82
2021/08/08 02:07:09;;;;;;;9.77;8.50;;;21.50;71.10;;;;;;5102253;28;20183;-80
2021/08/08 02:09:34;;;;;;;11.23;8.77;;;21.50;71.00;;;;;;5037755;28;20290;-80
2021/08/08 02:12:00;;;;;;;13.00;9.18;;;21.50;71.10;;;;;;5037078;28;20644;-82
2021/08/08 02:14:26;;;;;;;9.70;8.45;;;21.50;71.00;;;;;;5036555;28;20158;-79
2021/08/08 02:16:56;;;;;;;9.73;8.40;;;21.50;71.10;;;;;;5053834;28;20180;-83
2021/08/08 02:19:22;;;;;;;9.75;8.32;;;21.50;71.00;;;;;;5105088;28;20213;-82
2021/08/08 02:21:49;;;;;;;10.77;8.70;;;21.50;71.10;;;;;;5054324;28;20151;-80
2021/08/08 02:24:19;;;;;;;9.50;8.10;;;21.50;71.10;;;;;;5036899;28;20683;-82
2021/08/08 02:26:45;;;;;;;10.10;8.02;;;21.50;71.00;;;;;;5104859;28;20245;-80
2021/08/08 02:29:15;;;;;;;9.73;8.27;;;21.50;71.00;;;;;;5053118;28;20596;-83
2021/08/08 02:31:42;;;;;;;11.05;9.02;;;21.50;71.00;;;;;;5101849;28;20178;-79
2021/08/08 02:34:10;;;;;;;10.70;8.80;;;21.50;71.00;;;;;;5054000;28;20189;-82
2021/08/08 02:36:42;;;;;;;11.05;8.50;;;21.50;71.00;;;;;;5087778;28;20178;-84
2021/08/08 02:39:09;;;;;;;10.52;8.55;;;21.50;71.10;;;;;;5070923;28;20186;-79
2021/08/08 02:41:38;;;;;;;9.35;8.02;;;21.50;71.00;;;;;;5105308;28;20182;-84
2021/08/08 02:44:05;;;;;;;10.15;9.02;;;21.50;71.10;;;;;;5035728;28;20242;-85
2021/08/08 02:46:36;;;;;;;10.88;8.57;;;21.50;71.00;;;;;;5035665;28;20218;-81
2021/08/08 02:49:03;;;;;;;11.27;8.52;;;21.50;71.10;;;;;;5105042;28;20190;-80
2021/08/08 02:51:30;;;;;;;11.55;8.88;;;21.50;71.00;;;;;;5104412;28;20185;-83
2021/08/08 02:53:57;;;;;;;10.82;8.48;;;21.50;71.00;;;;;;5104402;28;20649;-80
2021/08/08 02:56:24;;;;;;;11.35;8.57;;;21.40;71.00;;;;;;5104721;28;20664;-78
2021/08/08 02:58:51;;;;;;;10.43;8.10;;;21.50;71.00;;;;;;5104347;28;20189;-82
2021/08/08 03:01:16;;;;;;;10.35;8.38;;;21.50;71.00;;;;;;5087242;28;20272;-78
2021/08/08 03:03:48;;;;;;;10.20;8.40;;;21.50;71.00;;;;;;5053178;28;20253;-80
2021/08/08 03:06:18;;;;;;;10.10;8.27;;;21.40;70.90;;;;;;5087154;28;20182;-79
2021/08/08 03:08:44;;;;;;;9.98;8.30;;;21.50;70.90;;;;;;5069661;28;20186;-84
2021/08/08 03:11:12;;;;;;;10.95;8.25;;;21.50;70.90;;;;;;5104169;28;20228;-81
2021/08/08 03:13:39;;;;;;;9.77;8.10;;;21.50;71.00;;;;;;5104077;28;20185;-82
2021/08/08 03:16:06;;;;;;;11.13;9.00;;;21.40;70.90;;;;;;5053019;28;20238;-80
2021/08/08 03:18:36;;;;;;;11.13;8.70;;;21.50;71.80;;;;;;5052821;28;20159;-83
2021/08/08 03:21:02;;;;;;;9.70;8.40;;;21.50;71.00;;;;;;5104276;28;20186;-83
2021/08/08 03:23:36;;;;;;;10.63;8.80;;;21.40;70.90;;;;;;5052760;28;20186;-79
2021/08/08 03:26:03;;;;;;;9.98;8.05;;;21.40;70.70;;;;;;5087227;28;20587;-79
2021/08/08 03:28:29;;;;;;;10.43;8.70;;;21.50;70.90;;;;;;5034967;28;20154;-80
2021/08/08 03:30:55;;;;;;;10.30;8.93;;;21.40;70.90;;;;;;5035183;28;20150;-81
2021/08/08 03:33:20;;;;;;;10.25;7.97;;;21.50;70.90;;;;;;5052610;28;20542;-82
2021/08/08 03:35:52;;;;;;;10.35;8.35;;;21.40;70.70;;;;;;5052450;28;20154;-81
2021/08/08 03:38:23;;;;;;;10.73;8.25;;;21.40;70.90;;;;;;5103632;28;20185;-81
2021/08/08 03:40:50;;;;;;;9.25;8.23;;;21.40;70.90;;;;;;5103733;28;20186;-84
2021/08/08 03:43:17;;;;;;;10.80;8.40;;;21.40;70.90;;;;;;5016674;28;20213;-83
2021/08/08 03:45:47;;;;;;;10.73;8.63;;;21.50;70.90;;;;;;5103076;28;20190;-83
2021/08/08 03:48:14;;;;;;;9.77;8.30;;;21.40;70.90;;;;;;5103236;28;20189;-83
2021/08/08 03:50:41;;;;;;;11.32;8.60;;;21.40;70.90;;;;;;5086206;28;20667;-81
2021/08/08 03:53:08;;;;;;;10.00;7.97;;;21.40;70.80;;;;;;5102735;28;20178;-85
2021/08/08 03:55:33;;;;;;;9.50;7.97;;;21.40;70.70;;;;;;5052135;28;20194;-80
2021/08/08 03:58:01;;;;;;;11.45;8.90;;;21.40;70.80;;;;;;5034268;28;20159;-83
2021/08/08 04:00:31;;;;;;;10.60;8.43;;;21.40;70.80;;;;;;5102915;28;20189;-81
2021/08/08 04:02:58;;;;;;;10.70;8.23;;;21.40;70.70;;;;;;5102988;28;20182;-81
2021/08/08 04:05:25;;;;;;;10.20;8.43;;;21.40;70.70;;;;;;5102766;28;20197;-83
2021/08/08 04:07:52;;;;;;;10.60;7.97;;;21.40;70.70;;;;;;5102500;28;20281;-83
2021/08/08 04:10:18;;;;;;;10.18;8.38;;;21.50;70.80;;;;;;5099394;28;20262;-84
2021/08/08 04:12:45;;;;;;;10.60;8.25;;;21.50;70.70;;;;;;5031582;28;20193;-80
2021/08/08 04:15:12;;;;;;;9.90;8.02;;;21.50;70.50;;;;;;5099037;28;20229;-82
2021/08/08 04:17:39;;;;;;;10.45;8.48;;;21.50;70.60;;;;;;5099039;28;20670;-84
2021/08/08 04:20:07;;;;;;;10.20;8.02;;;21.50;70.50;;;;;;5099138;28;20182;-83
2021/08/08 04:22:38;;;;;;;9.43;8.02;;;21.50;70.50;;;;;;5081538;28;20213;-81
2021/08/08 04:25:08;;;;;;;10.20;8.23;;;21.50;70.60;;;;;;5065338;28;20246;-83
2021/08/08 04:27:35;;;;;;;9.43;8.00;;;21.50;70.50;;;;;;5082135;28;20203;-86
2021/08/08 04:30:01;;;;;;;10.18;7.80;;;21.50;70.30;;;;;;5099024;28;20182;-81
2021/08/08 04:32:27;;;;;;;10.25;8.40;;;21.50;70.20;;;;;;5098815;28;20262;-83
2021/08/08 04:34:57;;;;;;;10.32;8.70;;;21.50;70.20;;;;;;5013560;28;20202;-85
2021/08/08 04:37:23;;;;;;;10.52;8.35;;;21.60;70.10;;;;;;5098930;28;20269;-86
2021/08/08 04:39:50;;;;;;;10.45;8.45;;;21.50;69.70;;;;;;5031194;28;20572;-79
2021/08/08 04:42:20;;;;;;;10.38;7.97;;;21.60;69.70;;;;;;5029853;28;20675;-84
2021/08/08 04:44:49;;;;;;;8.60;7.70;;;21.60;69.50;;;;;;5098895;28;20238;-82
2021/08/08 04:47:16;;;;;;;9.57;8.10;;;21.60;69.60;;;;;;5098806;28;20251;-83
2021/08/08 04:49:42;;;;;;;10.02;7.80;;;21.60;69.60;;;;;;5030963;28;20192;-80
2021/08/08 04:52:09;;;;;;;10.13;7.82;;;21.60;69.50;;;;;;5031021;28;20567;-85
2021/08/08 04:54:35;;;;;;;9.75;7.70;;;21.60;69.30;;;;;;5012837;28;20167;-80
2021/08/08 04:57:07;;;;;;;9.73;8.13;;;21.70;69.30;;;;;;5013476;28;20269;-83
2021/08/08 04:59:33;;;;;;;10.43;8.27;;;21.70;69.10;;;;;;5098486;28;20198;-80
2021/08/08 05:02:03;;;;;;;8.90;7.22;;;21.70;69.00;;;;;;5031077;28;20170;-81
2021/08/08 05:04:34;;;;;;;9.48;8.25;;;21.70;68.90;;;;;;5098539;28;20250;-83
2021/08/08 05:07:04;;;;;;;9.07;8.07;;;21.70;68.90;;;;;;5098578;28;20186;-85
2021/08/08 05:09:29;;;;;;;10.95;8.60;;;21.70;69.00;;;;;;5101439;28;20228;-84
2021/08/08 05:11:55;;;;;;;9.88;8.23;;;21.70;69.10;;;;;;5050693;28;20155;-85
2021/08/08 05:14:21;;;;;;;9.00;7.63;;;21.70;69.00;;;;;;5050903;28;20294;-79
2021/08/08 05:16:47;;;;;;;9.40;8.20;;;21.70;68.90;;;;;;5033153;28;20282;-82
2021/08/08 05:19:20;;;;;;;9.90;8.13;;;21.70;68.80;;;;;;5033326;28;20193;-80
2021/08/08 05:21:46;;;;;;;8.88;7.45;;;21.70;68.90;;;;;;5101795;28;20190;-82
2021/08/08 05:24:18;;;;;;;9.27;7.47;;;21.70;68.90;;;;;;5050879;28;20322;-84
2021/08/08 05:26:48;;;;;;;9.40;7.47;;;21.70;69.90;;;;;;5100386;28;20198;-81
2021/08/08 05:29:19;;;;;;;9.32;7.68;;;21.60;69.20;;;;;;5101521;28;20277;-83
2021/08/08 05:31:47;;;;;;;9.70;7.78;;;21.60;69.30;;;;;;5084697;28;20663;-78
2021/08/08 05:34:17;;;;;;;8.73;7.75;;;21.60;69.20;;;;;;5101495;28;20277;-80
2021/08/08 05:36:47;;;;;;;10.63;7.95;;;21.70;69.10;;;;;;5101020;28;20178;-77
2021/08/08 05:39:16;;;;;;;9.73;7.97;;;21.70;69.10;;;;;;5101419;28;20180;-80
2021/08/08 05:41:45;;;;;;;9.82;7.93;;;21.70;68.80;;;;;;5101356;28;20182;-81
2021/08/08 05:44:14;;;;;;;8.88;7.65;;;21.70;68.90;;;;;;5101340;28;20213;-82
2021/08/08 05:46:43;;;;;;;10.13;8.20;;;21.60;68.90;;;;;;5084348;28;20273;-80
2021/08/08 05:49:12;;;;;;;10.35;7.97;;;21.70;68.90;;;;;;5101454;28;20590;-83
2021/08/08 05:51:41;;;;;;;9.43;7.57;;;21.70;69.20;;;;;;5100804;28;20182;-82
2021/08/08 05:54:09;;;;;;;10.43;8.18;;;21.70;68.90;;;;;;5100792;28;20182;-82
2021/08/08 05:56:38;;;;;;;9.60;8.20;;;21.70;69.00;;;;;;5101008;28;20636;-81
2021/08/08 05:59:07;;;;;;;10.35;7.85;;;21.70;68.90;;;;;;5101156;28;20269;-81
2021/08/08 06:01:38;;;;;;;10.13;7.78;;;21.70;69.00;;;;;;5100428;28;20270;-78
2021/08/08 06:04:06;;;;;;;10.10;7.70;;;21.70;69.00;;;;;;5101018;28;20213;-80
2021/08/08 06:06:35;;;;;;;8.35;7.40;;;21.70;68.80;;;;;;5102166;28;20269;-82
2021/08/08 06:09:03;;;;;;;9.80;8.02;;;21.70;68.80;;;;;;5105942;28;20217;-82
2021/08/08 06:11:31;;;;;;;8.88;7.65;;;21.70;68.50;;;;;;5105666;28;20252;-82
2021/08/08 06:13:58;;;;;;;8.98;7.65;;;21.70;68.70;;;;;;5105750;28;20193;-81
2021/08/08 06:16:27;;;;;;;10.93;7.90;;;21.80;68.60;;;;;;5054387;28;20562;-84
2021/08/08 06:18:57;;;;;;;9.50;7.80;;;21.80;68.40;;;;;;5088708;28;20177;-80
2021/08/08 06:21:27;;;;;;;10.30;8.15;;;21.80;68.40;;;;;;5105667;28;20660;-80
2021/08/08 06:23:55;;;;;;;11.30;8.30;;;21.90;68.20;;;;;;5019619;28;20254;-82
2021/08/08 06:26:24;;;;;;;10.23;8.23;;;21.80;68.10;;;;;;5019099;28;20273;-80
2021/08/08 06:28:55;;;;;;;10.13;8.00;;;21.80;68.50;;;;;;5088346;28;20190;-83
2021/08/08 06:31:23;;;;;;;10.25;7.75;;;21.70;68.50;;;;;;5104994;28;20496;-80
2021/08/08 06:33:54;;;;;;;8.52;7.30;;;21.80;68.50;;;;;;5104786;28;20193;-78
2021/08/08 06:36:22;;;;;;;9.38;8.02;;;21.70;68.30;;;;;;5104365;28;20608;-81
2021/08/08 06:38:52;;;;;;;9.40;8.02;;;21.70;68.40;;;;;;5104537;28;20559;-83
2021/08/08 06:41:21;;;;;;;8.90;8.00;;;21.70;68.80;;;;;;5104146;28;20644;-80
2021/08/08 06:43:49;;;;;;;9.52;7.78;;;21.70;68.50;;;;;;5104145;28;20346;-81
2021/08/08 06:46:17;;;;;;;8.27;7.05;;;21.80;68.50;;;;;;5106847;28;20189;-79
2021/08/08 06:48:47;;;;;;;7.93;7.13;;;21.80;68.50;;;;;;5106117;28;20182;-82
2021/08/08 06:51:15;;;;;;;7.95;7.15;;;21.80;68.40;;;;;;5088735;28;20189;-78
2021/08/08 06:53:46;;;;;;;8.63;7.57;;;21.80;68.40;;;;;;5089095;28;20177;-83
2021/08/08 06:56:14;;;;;;;8.73;7.13;;;21.70;68.70;;;;;;5107156;28;20284;-81
2021/08/08 06:58:41;;;;;;;9.38;7.70;;;21.80;68.70;;;;;;5091099;28;20322;-82
2021/08/08 07:01:17;;;;;;;13.07;8.20;;;21.80;68.50;;;;;;5089915;28;20197;-81
2021/08/08 07:03:47;;;;;;;7.97;7.18;;;21.80;68.60;;;;;;5107586;28;20207;-80
2021/08/08 07:06:17;;;;;;;9.20;7.63;;;21.90;68.30;;;;;;5107381;28;20661;-79
2021/08/08 07:08:45;;;;;;;9.80;7.50;;;21.80;68.30;;;;;;5087091;28;20246;-79
2021/08/08 07:11:17;;;;;;;9.48;7.60;;;21.90;69.00;;;;;;5087778;28;20232;-83
2021/08/08 07:13:47;;;;;;;10.45;7.82;;;21.90;68.20;;;;;;5020393;28;20190;-78
2021/08/08 07:16:17;;;;;;;12.05;7.28;;;21.90;68.30;;;;;;5107435;28;20174;-82
2021/08/08 07:18:47;;;;;;;9.27;7.03;;;22.00;68.70;;;;;;5090303;28;20182;-79
2021/08/08 07:21:14;;;;;;;9.75;7.47;;;21.90;68.70;;;;;;5089318;28;20182;-80
2021/08/08 07:23:41;;;;;;;10.25;7.85;;;22.00;68.80;;;;;;5004103;28;20213;-80
2021/08/08 07:26:09;;;;;;;9.45;7.93;;;22.00;69.50;;;;;;5002682;28;20186;-82
2021/08/08 07:28:36;;;;;;;11.43;7.75;;;22.00;68.60;;;;;;5018375;28;20217;-80
2021/08/08 07:31:03;;;;;;;10.98;7.63;;;21.90;68.70;;;;;;5018892;28;20202;-82
2021/08/08 07:33:31;;;;;;;12.13;7.43;;;21.90;68.90;;;;;;5088997;28;20246;-84
2021/08/08 07:35:58;;;;;;;11.57;7.70;;;21.90;68.90;;;;;;5105246;28;20178;-78
2021/08/08 07:38:27;;;;;;;9.63;7.38;;;21.90;68.90;;;;;;5104050;28;20326;-81
2021/08/08 07:40:56;;;;;;;9.38;8.20;;;21.90;68.90;;;;;;5086232;28;20530;-82
2021/08/08 07:43:21;;;;;;;8.55;7.25;;;21.80;69.10;;;;;;5103222;28;20246;-79
2021/08/08 07:45:50;;;;;;;10.32;7.65;;;21.80;69.20;;;;;;5051948;28;20558;-81
2021/08/08 07:48:18;;;;;;;14.43;7.78;;;21.80;69.20;;;;;;5103859;28;20225;-79
2021/08/08 07:50:46;;;;;;;11.32;7.72;;;21.80;69.20;;;;;;5086708;28;20178;-80
2021/08/08 07:53:13;;;;;;;9.63;7.38;;;21.80;69.50;;;;;;5070308;28;20178;-81
2021/08/08 07:55:46;;;;;;;9.73;7.60;;;21.80;69.50;;;;;;5104670;28;20186;-82
2021/08/08 07:58:14;;;;;;;9.25;7.80;;;21.80;69.30;;;;;;5086093;28;20211;-80
2021/08/08 08:00:41;;;;;;;10.98;7.95;;;21.80;69.40;;;;;;5104657;28;20186;-83
2021/08/08 08:03:11;;;;;;;8.38;7.20;;;21.80;69.40;;;;;;5088404;28;20637;-83
2021/08/08 08:05:39;;;;;;;12.68;7.70;;;21.80;69.50;;;;;;5103691;28;20205;-80
2021/08/08 08:08:07;;;;;;;10.98;7.82;;;21.80;69.50;;;;;;5103394;28;20218;-82
2021/08/08 08:10:32;;;;;;;12.40;8.07;;;21.80;69.60;;;;;;5085997;28;20302;-79
2021/08/08 08:13:00;;;;;;;9.68;7.75;;;21.90;69.50;;;;;;5051791;28;20203;-80
2021/08/08 08:15:28;;;;;;;9.55;7.38;;;21.90;69.20;;;;;;5086760;28;20186;-80
2021/08/08 08:17:59;;;;;;;10.73;7.65;;;21.90;69.40;;;;;;5019591;28;20185;-79
2021/08/08 08:20:29;;;;;;;8.70;7.53;;;21.90;69.80;;;;;;5070858;28;20537;-79
2021/08/08 08:22:56;;;;;;;9.60;7.90;;;21.80;69.90;;;;;;5105887;28;20185;-80
2021/08/08 08:25:23;;;;;;;8.93;7.55;;;21.90;70.10;;;;;;5088171;28;20221;-79
2021/08/08 08:27:52;;;;;;;14.73;7.88;;;21.80;69.80;;;;;;5054631;28;20232;-83
2021/08/08 08:30:23;;;;;;;11.35;7.25;;;21.80;69.90;;;;;;5018371;28;20513;-80
2021/08/08 08:32:51;;;;;;;11.20;7.63;;;21.90;69.70;;;;;;5018396;28;20181;-80
2021/08/08 08:35:19;;;;;;;10.93;7.68;;;21.90;69.80;;;;;;5035818;28;20164;-82
2021/08/08 08:37:46;;;;;;;8.93;7.78;;;21.90;69.90;;;;;;5001712;28;20664;-79
2021/08/08 08:40:16;;;;;;;10.68;8.13;;;21.90;69.80;;;;;;5054113;28;20166;-81
2021/08/08 08:42:52;;;;;;;11.98;7.78;;;21.90;69.60;;;;;;5090159;28;20182;-80
2021/08/08 08:45:18;;;;;;;8.82;7.70;;;21.90;69.70;;;;;;5103929;28;20220;-80
2021/08/08 08:47:48;;;;;;;10.48;7.55;;;21.90;69.70;;;;;;5035892;28;20158;-77
2021/08/08 08:50:16;;;;;;;9.07;8.18;;;21.90;69.80;;;;;;5019891;28;20186;-80
2021/08/08 08:52:46;;;;;;;9.63;8.45;;;21.80;70.10;;;;;;5104582;28;20663;-77
2021/08/08 08:55:14;;;;;;;9.55;7.72;;;21.80;70.10;;;;;;5090334;28;20182;-79
2021/08/08 08:57:44;;;;;;;10.40;7.93;;;21.80;70.50;;;;;;5088917;28;20186;-79
2021/08/08 09:00:18;;;;;;;11.60;7.70;;;21.80;70.40;;;;;;5109013;28;20186;-78
2021/08/08 09:02:45;;;;;;;11.07;8.60;;;21.80;70.50;;;;;;5089156;28;20227;-78
2021/08/08 09:05:15;;;;;;;11.70;9.10;;;21.90;70.30;;;;;;5062823;28;20307;-83
2021/08/08 09:07:43;;;;;;;10.10;8.48;;;21.90;70.40;;;;;;5012187;28;20192;-83
2021/08/08 09:10:11;;;;;;;12.45;9.32;;;21.90;70.70;;;;;;4993801;28;20288;-79
2021/08/08 09:12:38;;;;;;;14.23;10.30;;;21.90;70.50;;;;;;4976571;28;20171;-81
2021/08/08 09:15:09;;;;;;;11.30;9.38;;;22.00;70.10;;;;;;5027030;28;20245;-83
2021/08/08 09:17:38;;;;;;;14.00;11.60;;;22.00;70.10;;;;;;5027719;28;20263;-79
2021/08/08 09:20:08;;;;;;;16.80;13.32;;;22.00;70.10;;;;;;5015201;28;20207;-80
2021/08/08 09:22:36;;;;;;;20.60;14.77;;;21.90;70.20;;;;;;5013594;28;20609;-78
2021/08/08 09:25:18;;;;;;;17.25;13.98;;;21.90;70.30;;;;;;5031659;28;20223;-81
2021/08/08 09:27:44;;;;;;;10.55;9.45;;;22.00;70.50;;;;;;4991589;28;20554;-83
2021/08/08 09:30:20;;;;;;;17.20;14.85;;;21.80;70.40;;;;;;5027133;28;20180;-79
2021/08/08 09:33:09;;;;;;;13.55;10.38;;;21.90;70.50;;;;;;4977900;28;20235;-80
2021/08/08 09:35:38;;;;;;;20.30;17.50;;;21.90;70.50;;;;;;4960477;28;20180;-81
2021/08/08 09:38:07;;;;;;;16.17;13.02;;;21.90;70.70;;;;;;4961608;28;20182;-78
2021/08/08 09:40:38;;;;;;;12.25;10.63;;;21.90;70.40;;;;;;4961260;28;20658;-80
2021/08/08 09:43:05;;;;;;;16.25;11.05;;;21.90;70.60;;;;;;5032482;28;20201;-78
2021/08/08 09:45:39;;;;;;;12.77;11.02;;;21.90;70.70;;;;;;5018108;28;20207;-81
2021/08/08 09:48:06;;;;;;;13.73;10.63;;;21.90;70.80;;;;;;5034368;28;20158;-84
2021/08/08 09:50:33;;;;;;;12.93;10.15;;;21.80;70.90;;;;;;5018830;28;20162;-81
2021/08/08 09:53:01;;;;;;;12.05;10.05;;;21.80;70.90;;;;;;5018391;28;20174;-82
2021/08/08 09:55:31;;;;;;;14.73;10.63;;;21.80;71.00;;;;;;5035571;28;20155;-85
2021/08/08 09:57:57;;;;;;;14.45;10.45;;;21.80;71.30;;;;;;5018342;28;20181;-81
2021/08/08 10:00:25;;;;;;;13.40;10.88;;;21.80;71.10;;;;;;5051273;28;20219;-82
2021/08/08 10:02:50;;;;;;;13.50;11.00;;;21.80;71.00;;;;;;5052186;28;20170;-82
2021/08/08 10:05:17;;;;;;;14.18;10.55;;;21.80;71.30;;;;;;5051647;28;20327;-83
2021/08/08 10:07:45;;;;;;;13.50;11.02;;;21.80;70.90;;;;;;5049666;28;20154;-81
2021/08/08 10:10:11;;;;;;;16.27;11.05;;;21.90;70.80;;;;;;5059461;28;20701;-80
2021/08/08 10:12:56;;;;;;;13.02;11.25;;;21.80;70.90;;;;;;5008544;28;20200;-83
2021/08/08 10:15:23;;;;;;;13.38;10.55;;;21.80;71.00;;;;;;5062267;28;20313;-82
2021/08/08 10:17:50;;;;;;;12.52;10.75;;;21.80;70.70;;;;;;5093809;28;20203;-85
2021/08/08 10:20:17;;;;;;;13.32;10.40;;;21.80;70.40;;;;;;5060082;28;20201;-84
2021/08/08 10:22:51;;;;;;;12.75;10.43;;;21.90;70.40;;;;;;5076472;28;20184;-84
2021/08/08 10:25:21;;;;;;;11.75;10.55;;;21.90;69.90;;;;;;5059221;28;20243;-83
2021/08/08 10:27:48;;;;;;;13.50;10.15;;;21.90;70.40;;;;;;5093559;28;20278;-81
2021/08/08 10:30:18;;;;;;;11.70;10.23;;;21.90;69.90;;;;;;5092794;28;20187;-81
2021/08/08 10:32:44;;;;;;;12.73;10.13;;;21.90;69.90;;;;;;5076861;28;20665;-81
2021/08/08 10:35:12;;;;;;;11.65;10.02;;;21.90;70.20;;;;;;5024541;28;20182;-81
2021/08/08 10:37:39;;;;;;;12.52;10.48;;;21.90;70.20;;;;;;5009308;28;20155;-83
2021/08/08 10:40:06;;;;;;;14.82;11.40;;;21.90;70.50;;;;;;5008337;28;20569;-78
2021/08/08 10:42:44;;;;;;;14.45;10.82;;;21.90;70.30;;;;;;5026637;28;20168;-78
2021/08/08 10:45:31;;;;;;;11.80;10.40;;;21.90;70.50;;;;;;5076951;28;20223;-83
2021/08/08 10:48:00;;;;;;;12.38;10.90;;;21.90;70.70;;;;;;5092858;28;20184;-77
2021/08/08 10:50:39;;;;;;;17.20;10.95;;;21.90;70.50;;;;;;5010779;28;20152;-82
2021/08/08 10:53:05;;;;;;;14.23;11.98;;;21.90;70.60;;;;;;5078306;28;20665;-81
2021/08/08 10:55:37;;;;;;;12.90;10.40;;;21.90;70.50;;;;;;5099621;28;20222;-81
2021/08/08 10:58:13;;;;;;;14.73;11.45;;;21.90;70.70;;;;;;5064157;28;20183;-80
2021/08/08 11:00:43;;;;;;;17.45;11.75;;;21.90;70.70;;;;;;5029215;28;20235;-79
2021/08/08 11:03:13;;;;;;;16.73;12.45;;;21.90;70.80;;;;;;5081725;28;20184;-82
2021/08/08 11:05:39;;;;;;;17.98;14.95;;;21.90;70.90;;;;;;5019385;28;20175;-81
2021/08/08 11:08:11;;;;;;;22.80;14.63;;;21.90;71.10;;;;;;5018277;28;20224;-79
2021/08/08 11:10:42;;;;;;;15.55;11.48;;;21.90;71.10;;;;;;5068763;28;20314;-81
2021/08/08 11:13:24;;;;;;;15.55;12.73;;;22.00;71.20;;;;;;5070220;28;20186;-82
2021/08/08 11:15:54;;;;;;;14.88;11.75;;;22.00;71.60;;;;;;5015821;28;20163;-79
2021/08/08 11:18:29;;;;;;;13.93;10.88;;;21.90;71.60;;;;;;4999756;28;20183;-82
2021/08/08 11:20:56;;;;;;;14.25;11.32;;;22.00;71.80;;;;;;5035023;28;20159;-77
2021/08/08 11:23:32;;;;;;;17.25;12.77;;;22.00;71.70;;;;;;5019414;28;20158;-78
2021/08/08 11:26:00;;;;;;;17.10;12.40;;;22.00;71.90;;;;;;5072404;28;20650;-77
2021/08/08 11:28:33;;;;;;;15.77;11.57;;;21.90;71.70;;;;;;5086711;28;20186;-82
2021/08/08 11:31:01;;;;;;;12.05;10.65;;;22.00;71.80;;;;;;5002934;28;20248;-78
2021/08/08 11:33:31;;;;;;;13.68;11.45;;;22.00;71.20;;;;;;5087517;28;20604;-83
2021/08/08 11:36:02;;;;;;;12.48;11.20;;;21.90;71.60;;;;;;5001851;28;20187;-78
2021/08/08 11:38:32;;;;;;;12.90;11.13;;;21.90;71.80;;;;;;5068654;28;20187;-79
2021/08/08 11:41:02;;;;;;;12.52;10.88;;;22.00;72.10;;;;;;4999878;28;20557;-82
2021/08/08 11:43:33;;;;;;;12.68;10.90;;;21.80;72.20;;;;;;5070804;28;20195;-78
2021/08/08 11:46:02;;;;;;;16.27;10.75;;;21.90;72.60;;;;;;5085811;28;20213;-84
2021/08/08 11:48:33;;;;;;;12.20;10.93;;;22.00;72.30;;;;;;5069597;28;20209;-80
2021/08/08 11:51:03;;;;;;;12.95;11.07;;;22.00;72.10;;;;;;5102255;28;20189;-80
2021/08/08 11:53:32;;;;;;;14.32;11.48;;;22.00;71.70;;;;;;4998601;28;20183;-80
2021/08/08 11:56:12;;;;;;;12.95;11.57;;;22.00;71.40;;;;;;5081618;28;20168;-78
2021/08/08 11:58:44;;;;;;;14.57;10.70;;;22.00;72.40;;;;;;5098975;28;20156;-79
2021/08/08 12:01:11;;;;;;;15.35;11.23;;;22.00;71.40;;;;;;5014448;28;20168;-77
2021/08/08 12:03:38;;;;;;;16.15;11.27;;;22.00;71.80;;;;;;5083256;28;20668;-82
2021/08/08 12:06:04;;;;;;;15.27;11.20;;;22.00;71.30;;;;;;5029397;28;20201;-82
2021/08/08 12:08:30;;;;;;;12.80;10.90;;;22.00;70.70;;;;;;5013513;28;20160;-78
2021/08/08 12:10:58;;;;;;;14.25;10.93;;;22.10;70.30;;;;;;5043124;28;20232;-80
2021/08/08 12:13:27;;;;;;;13.55;10.57;;;22.10;70.70;;;;;;5038303;28;20154;-79
2021/08/08 12:15:53;;;;;;;13.95;11.07;;;22.00;70.80;;;;;;5057815;28;20334;-84
2021/08/08 12:18:27;;;;;;;13.55;10.43;;;22.00;70.70;;;;;;5039687;28;20193;-82
2021/08/08 12:20:54;;;;;;;14.40;10.55;;;22.00;70.10;;;;;;5038768;28;20181;-79
2021/08/08 12:23:24;;;;;;;14.93;11.05;;;22.00;70.40;;;;;;5059346;28;20215;-78
2021/08/08 12:26:03;;;;;;;15.68;11.70;;;22.00;71.00;;;;;;5040246;28;20257;-81
2021/08/08 12:28:29;;;;;;;12.48;11.07;;;22.00;70.60;;;;;;5055126;28;20218;-81
2021/08/08 12:31:10;;;;;;;16.00;11.65;;;22.00;70.30;;;;;;5056258;28;20181;-78
2021/08/08 12:33:36;;;;;;;15.90;11.80;;;22.00;70.30;;;;;;5088963;28;20184;-78
2021/08/08 12:36:12;;;;;;;14.25;11.27;;;22.00;70.90;;;;;;5053976;28;20246;-80
2021/08/08 12:38:51;;;;;;;13.23;11.02;;;22.00;71.40;;;;;;5072033;28;20190;-78
2021/08/08 12:41:27;;;;;;;18.55;11.35;;;21.90;71.30;;;;;;5055552;28;20205;-79
2021/08/08 12:43:57;;;;;;;16.13;10.52;;;21.90;71.70;;;;;;5054116;28;20636;-82